Time;durP1;ratioP1;P1;durP2;ratioP2;P2;SDS_P1;SDS_P2;PMS_P1;PMS_P2;Temp;Humidity;BMP_temperature;BMP_pressure;BME280_temperature;BME280_humidity;BME280_pressure;Samples;Min_cycle;Max_cycle;Signal;HPM_P1;HPM_P2
2022/01/28 00:05:22;;;;;;;20.20;2.60;;;;;;;6.21;100.00;102968.31;5028172;28;20056;-34
2022/01/28 00:07:50;;;;;;;16.60;2.47;;;;;;;6.22;100.00;102963.63;5061463;28;20059;-35
2022/01/28 00:10:21;;;;;;;14.85;2.10;;;;;;;6.21;100.00;102964.69;5070400;28;20135;-32
2022/01/28 00:15:54;;;;;;;16.33;2.17;;;;;;;6.19;100.00;102975.16;5069309;28;20417;-31
2022/01/28 00:38:03;;;;;;;14.43;2.53;;;;;;;6.15;100.00;102999.69;5072279;28;20476;-31
2022/01/28 00:40:32;;;;;;;15.00;2.25;;;;;;;6.17;100.00;103007.78;5074047;28;20449;-34
2022/01/28 00:43:03;;;;;;;16.23;2.03;;;;;;;6.18;100.00;103015.91;5072929;28;20126;-32
2022/01/28 00:45:31;;;;;;;23.92;3.15;;;;;;;6.19;100.00;103020.34;5073759;28;20044;-30
2022/01/28 00:48:00;;;;;;;18.15;2.50;;;;;;;6.19;100.00;103017.56;5073605;28;20509;-34
2022/01/28 00:50:27;;;;;;;13.32;2.20;;;;;;;6.18;100.00;103024.22;5072901;28;20132;-33
2022/01/28 00:52:58;;;;;;;18.30;3.20;;;;;;;6.20;100.00;103032.28;5073609;28;20086;-33
2022/01/28 00:55:27;;;;;;;17.95;2.50;;;;;;;6.18;100.00;103038.06;5064538;28;20467;-31
2022/01/28 00:57:56;;;;;;;20.52;3.00;;;;;;;6.21;100.00;103050.63;5072312;28;20048;-34
2022/01/28 01:00:25;;;;;;;22.23;2.47;;;;;;;6.21;100.00;103045.94;5072771;28;20044;-31
2022/01/28 01:02:53;;;;;;;15.43;2.35;;;;;;;6.22;100.00;103046.78;5073182;28;20099;-34
2022/01/28 01:05:22;;;;;;;18.65;2.30;;;;;;;6.22;100.00;103053.19;5072767;28;20083;-34
2022/01/28 01:07:50;;;;;;;15.80;2.60;;;;;;;6.22;100.00;103064.28;5072875;28;20501;-29
2022/01/28 01:10:18;;;;;;;18.70;2.50;;;;;;;6.24;100.00;103064.06;5072638;28;20047;-32
2022/01/28 01:12:47;;;;;;;17.30;2.78;;;;;;;6.27;100.00;103062.78;5073165;28;20501;-31
2022/01/28 01:15:19;;;;;;;17.58;2.35;;;;;;;6.27;100.00;103071.09;5073479;28;20036;-31
2022/01/28 01:17:57;;;;;;;13.05;2.28;;;;;;;6.28;100.00;103076.44;5072484;28;20041;-31
2022/01/28 01:23:21;;;;;;;16.42;2.78;;;;;;;6.33;100.00;103096.03;5059957;28;20052;-34
2022/01/28 01:25:54;;;;;;;16.77;2.05;;;;;;;6.36;100.00;103095.63;5072086;28;20053;-33
2022/01/28 01:28:26;;;;;;;;;;;;;;;6.36;100.00;103092.84;5073722;28;20052;-30
2022/01/28 01:30:56;;;;;;;15.02;2.25;;;;;;;6.37;100.00;103104.78;5072210;28;20420;-31
2022/01/28 01:33:27;;;;;;;20.58;2.45;;;;;;;6.42;100.00;103102.19;5061890;28;20036;-33
2022/01/28 01:35:55;;;;;;;18.88;2.38;;;;;;;6.43;100.00;103095.56;5072187;28;20041;-31
2022/01/28 01:38:25;;;;;;;8.07;1.65;;;;;;;6.37;100.00;103100.09;5071724;28;20061;-34
2022/01/28 01:40:57;;;;;;;19.33;2.20;;;;;;;6.34;100.00;103114.38;5073001;28;20072;-31
2022/01/28 01:43:39;;;;;;;22.63;2.85;;;;;;;6.34;100.00;103116.31;5072642;28;20421;-30
2022/01/28 01:46:17;;;;;;;15.77;2.13;;;;;;;6.32;100.00;103122.06;5071836;28;20052;-32
2022/01/28 01:54:25;;;;;;;15.52;2.17;;;;;;;6.26;100.00;103125.69;5027081;28;20044;-31
2022/01/28 01:56:54;;;;;;;17.35;2.22;;;;;;;6.26;100.00;103131.22;5072040;28;20040;-30
2022/01/28 01:59:23;;;;;;;17.05;2.13;;;;;;;6.25;100.00;103139.75;5071621;28;20037;-31
2022/01/28 02:01:51;;;;;;;15.68;2.45;;;;;;;6.23;100.00;103153.84;5072436;28;20055;-32
2022/01/28 02:04:20;;;;;;;16.00;2.70;;;;;;;6.22;100.00;103149.34;5072258;28;20052;-33
2022/01/28 02:06:48;;;;;;;17.15;2.92;;;;;;;6.22;100.00;103152.13;5071187;28;20056;-31
2022/01/28 02:09:16;;;;;;;17.17;2.58;;;;;;;6.24;100.00;103150.00;5071874;28;20051;-32
2022/01/28 02:11:44;;;;;;;21.33;3.17;;;;;;;6.26;100.00;103144.25;5072033;28;20043;-32
2022/01/28 02:14:12;;;;;;;23.80;2.60;;;;;;;6.27;100.00;103154.25;5071153;28;20045;-32
2022/01/28 02:16:39;;;;;;;19.77;2.65;;;;;;;6.26;100.00;103155.34;5072145;28;20040;-30
2022/01/28 02:19:08;;;;;;;19.67;2.90;;;;;;;6.25;100.00;103173.03;5071635;28;20052;-32
2022/01/28 02:21:43;;;;;;;15.40;2.50;;;;;;;6.25;100.00;103167.50;5071613;28;20044;-32
2022/01/28 02:24:12;;;;;;;18.73;2.88;;;;;;;6.24;100.00;103166.63;5071972;28;20064;-31
2022/01/28 02:26:40;;;;;;;17.75;2.55;;;;;;;6.23;100.00;103184.34;5068278;28;20528;-31
2022/01/28 02:29:12;;;;;;;20.23;2.50;;;;;;;6.23;100.00;103176.88;5071012;28;20067;-31
2022/01/28 02:31:40;;;;;;;15.98;2.50;;;;;;;6.21;100.00;103178.16;5071907;28;20052;-32
2022/01/28 02:34:10;;;;;;;23.10;2.70;;;;;;;6.18;100.00;103179.47;5070890;28;20048;-32
2022/01/28 02:36:40;;;;;;;18.75;2.63;;;;;;;6.18;100.00;103181.38;5071464;28;20540;-30
2022/01/28 02:39:10;;;;;;;14.27;2.25;;;;;;;6.15;100.00;103187.34;5071562;28;20497;-31
2022/01/28 02:41:41;;;;;;;15.15;2.25;;;;;;;6.14;100.00;103182.84;5070783;28;20056;-31
2022/01/28 02:44:18;;;;;;;15.45;2.38;;;;;;;6.12;100.00;103185.00;5071569;28;20041;-32
2022/01/28 02:46:56;;;;;;;18.20;2.25;;;;;;;6.10;100.00;103192.66;5070462;28;20120;-32
2022/01/28 02:49:27;;;;;;;18.33;2.55;;;;;;;6.08;100.00;103192.88;5070935;28;20049;-30
2022/01/28 02:51:58;;;;;;;17.88;2.55;;;;;;;6.08;100.00;103183.69;5071535;28;20052;-31
2022/01/28 02:54:26;;;;;;;16.48;2.40;;;;;;;6.08;100.00;103183.69;5071385;28;20453;-33
2022/01/28 02:56:59;;;;;;;13.10;2.28;;;;;;;6.06;100.00;103178.38;5070579;28;20041;-30
2022/01/28 02:59:27;;;;;;;11.25;2.10;;;;;;;6.06;100.00;103194.13;5071137;28;20112;-31
2022/01/28 03:01:54;;;;;;;13.32;2.38;;;;;;;6.05;100.00;103193.28;5071385;28;20129;-30
2022/01/28 03:04:49;;;;;;;17.48;2.33;;;;;;;6.08;100.00;103194.78;5070628;28;20479;-31
2022/01/28 03:07:16;;;;;;;16.25;2.53;;;;;;;6.06;100.00;103185.81;5070977;28;20049;-30
2022/01/28 03:09:52;;;;;;;18.58;2.45;;;;;;;6.06;100.00;103180.28;5070209;28;20052;-32
2022/01/28 03:12:30;;;;;;;12.27;2.28;;;;;;;6.05;100.00;103196.06;5071338;28;20408;-30
2022/01/28 03:15:03;;;;;;;19.60;2.83;;;;;;;6.05;100.00;103206.28;5071222;28;20063;-32
2022/01/28 03:17:54;;;;;;;21.13;2.63;;;;;;;6.04;100.00;103196.25;5070366;28;20175;-31
2022/01/28 03:20:36;;;;;;;12.23;2.03;;;;;;;6.02;100.00;103206.72;5063042;28;20075;-37
2022/01/28 03:23:06;;;;;;;;;;;;;;;5.98;100.00;103213.75;5071494;28;20044;-33
2022/01/28 03:25:35;;;;;;;18.88;2.25;;;;;;;5.92;100.00;103212.69;5070210;28;19924;-33
2022/01/28 03:28:03;;;;;;;15.82;2.22;;;;;;;5.95;100.00;103203.09;5070805;28;20409;-32
2022/01/28 03:30:31;;;;;;;15.13;2.15;;;;;;;5.96;100.00;103194.56;5060518;28;20056;-33
2022/01/28 03:32:59;;;;;;;14.82;2.00;;;;;;;5.97;100.00;103185.19;5070690;28;20071;-34
2022/01/28 03:35:30;;;;;;;16.27;1.95;;;;;;;5.96;100.00;103186.25;5070907;28;20064;-38
2022/01/28 03:38:00;;;;;;;16.33;2.20;;;;;;;5.96;100.00;103179.88;5069838;28;20047;-34
2022/01/28 03:40:33;;;;;;;13.30;1.70;;;;;;;5.96;100.00;103189.03;5070727;28;20412;-34
2022/01/28 03:43:00;;;;;;;;;;;;;;;5.93;100.00;103186.69;5071188;28;20040;-33
2022/01/28 03:45:28;;;;;;;14.32;1.90;;;;;;;5.93;100.00;103194.13;5069781;28;19920;-33
2022/01/28 03:47:56;;;;;;;16.73;2.25;;;;;;;5.97;100.00;103190.75;5070609;28;20489;-30
2022/01/28 03:50:24;;;;;;;17.50;2.17;;;;;;;6.00;100.00;103189.44;5071045;28;20043;-31
2022/01/28 03:52:52;;;;;;;15.13;2.13;;;;;;;6.01;100.00;103203.09;5069913;28;20055;-31
2022/01/28 03:55:19;;;;;;;22.63;2.50;;;;;;;6.03;100.00;103197.34;5070663;28;20493;-31
2022/01/28 03:57:48;;;;;;;14.50;2.40;;;;;;;6.03;100.00;103205.66;5070721;28;20048;-33
2022/01/28 04:00:17;;;;;;;14.82;2.42;;;;;;;6.03;100.00;103202.88;5074305;28;20135;-33
2022/01/28 04:02:46;;;;;;;15.13;2.00;;;;;;;6.02;100.00;103207.56;5074279;28;20246;-32
2022/01/28 04:06:09;;;;;;;22.08;2.58;;;;;;;6.01;100.00;103202.22;5074625;28;20063;-32
2022/01/28 04:11:28;;;;;;;16.80;2.22;;;;;;;5.94;100.00;103196.69;5074415;28;20040;-31
2022/01/28 04:14:07;;;;;;;19.25;2.20;;;;;;;5.95;100.00;103205.88;5064435;28;20045;-31
2022/01/28 04:17:19;;;;;;;16.50;2.03;;;;;;;5.93;100.00;103214.38;5074087;28;20063;-32
2022/01/28 04:19:23;;;;;;;15.40;2.15;;;;;;;5.92;100.00;103214.59;5074104;28;20041;-30
2022/01/28 04:21:51;;;;;;;20.67;3.42;;;;;;;5.93;100.00;103219.06;5073446;28;20048;-33
2022/01/28 04:24:19;;;;;;;19.92;2.28;;;;;;;5.93;100.00;103224.63;5074025;28;20059;-35
2022/01/28 04:26:47;;;;;;;16.17;2.03;;;;;;;5.91;100.00;103219.28;5073144;28;20469;-31
2022/01/28 04:29:16;;;;;;;19.02;2.50;;;;;;;5.92;100.00;103228.44;5063135;28;20032;-31
2022/01/28 04:31:46;;;;;;;12.80;2.05;;;;;;;5.90;100.00;103225.88;5073884;28;20060;-30
2022/01/28 04:34:15;;;;;;;16.33;2.53;;;;;;;5.90;100.00;103228.66;5073358;28;20045;-33
2022/01/28 04:36:52;;;;;;;16.80;2.13;;;;;;;5.89;100.00;103232.50;5073891;28;20425;-32
2022/01/28 04:39:27;;;;;;;20.85;2.30;;;;;;;5.86;100.00;103247.59;5073750;28;20044;-31
2022/01/28 04:42:03;;;;;;;18.90;2.25;;;;;;;5.86;100.00;103246.72;5073060;28;20071;-31
2022/01/28 04:44:40;;;;;;;15.85;2.30;;;;;;;5.85;100.00;103247.78;5073879;28;20511;-35
2022/01/28 04:47:14;;;;;;;11.52;1.60;;;;;;;5.81;100.00;103250.13;5073638;28;20059;-32
2022/01/28 04:49:54;;;;;;;15.40;2.00;;;;;;;5.79;100.00;103246.72;5072874;28;20048;-35
2022/01/28 04:55:16;;;;;;;16.45;1.80;;;;;;;5.79;100.00;103245.88;5061939;28;20051;-31
2022/01/28 04:57:57;;;;;;;15.85;2.40;;;;;;;5.76;100.00;103252.69;5073183;28;20076;-34
2022/01/28 05:00:36;;;;;;;16.00;2.38;;;;;;;5.78;100.00;103247.78;5062270;28;20044;-32
2022/01/28 05:06:23;;;;;;;16.85;2.85;;;;;;;5.85;100.00;103262.50;5071553;28;20155;-33
2022/01/28 05:23:17;;;;;;;18.92;2.80;;;;;;;5.96;100.00;103257.47;5072083;28;20071;-31
2022/01/28 05:26:12;;;;;;;19.02;3.17;;;;;;;5.94;100.00;103273.44;5030659;28;20541;-31
2022/01/28 05:28:41;;;;;;;18.15;2.40;;;;;;;5.99;100.00;103280.06;5064316;28;20512;-29
2022/01/28 05:31:09;;;;;;;16.23;2.28;;;;;;;6.03;100.00;103274.94;5071902;28;20058;-31
2022/01/28 05:33:39;;;;;;;20.15;2.38;;;;;;;6.05;100.00;103281.97;5072753;28;20107;-32
2022/01/28 05:36:07;;;;;;;18.73;3.17;;;;;;;6.06;100.00;103275.38;5072740;28;20040;-34
2022/01/28 05:38:35;;;;;;;20.20;2.55;;;;;;;6.06;100.00;103291.16;5072133;28;20055;-32
2022/01/28 05:41:03;;;;;;;17.95;2.92;;;;;;;6.02;100.00;103287.94;5071613;28;20052;-33
2022/01/28 05:43:31;;;;;;;16.80;2.38;;;;;;;5.99;100.00;103288.38;5072827;28;20059;-32
2022/01/28 05:45:59;;;;;;;14.00;2.28;;;;;;;5.97;100.00;103292.41;5070520;28;20064;-31
2022/01/28 05:48:26;;;;;;;11.05;1.90;;;;;;;5.94;100.00;103287.28;5073115;28;20114;-30
2022/01/28 05:50:57;;;;;;;15.52;2.25;;;;;;;5.90;100.00;103297.09;5071819;28;20044;-32
2022/01/28 05:53:25;;;;;;;20.77;2.67;;;;;;;5.85;100.00;103301.28;5072564;28;20056;-32
2022/01/28 05:55:53;;;;;;;14.68;1.95;;;;;;;5.81;100.00;103302.75;5072445;28;20045;-33
2022/01/28 05:58:21;;;;;;;13.32;1.88;;;;;;;5.78;100.00;103310.66;5071472;28;20063;-32
2022/01/28 06:00:48;;;;;;;15.00;2.08;;;;;;;5.75;100.00;103311.06;5071982;28;20069;-32
2022/01/28 06:03:16;;;;;;;19.60;2.75;;;;;;;5.73;100.00;103314.03;5072470;28;20048;-30
2022/01/28 06:05:46;;;;;;;13.68;1.70;;;;;;;5.72;100.00;103312.34;5071339;28;20587;-31
2022/01/28 06:08:16;;;;;;;19.83;2.55;;;;;;;5.70;100.00;103311.69;5072332;28;20083;-33
2022/01/28 06:10:44;;;;;;;14.90;2.20;;;;;;;5.68;100.00;103324.88;5071948;28;20055;-32
2022/01/28 06:13:12;;;;;;;23.00;2.45;;;;;;;5.67;100.00;103325.94;5071125;28;20044;-31
2022/01/28 06:15:41;;;;;;;21.95;2.70;;;;;;;5.65;100.00;103328.06;5071129;28;20056;-30
2022/01/28 06:18:10;;;;;;;16.38;2.38;;;;;;;5.66;100.00;103338.09;5071871;28;20056;-30
2022/01/28 06:20:38;;;;;;;14.60;2.05;;;;;;;5.64;100.00;103337.44;5070899;28;20044;-30
2022/01/28 06:23:12;;;;;;;14.45;2.40;;;;;;;5.64;100.00;103345.75;5071959;28;20135;-32
2022/01/28 06:25:43;;;;;;;13.25;1.88;;;;;;;5.62;100.00;103347.84;5069937;28;20041;-35
2022/01/28 06:28:11;;;;;;;13.40;2.30;;;;;;;5.60;100.00;103361.06;5058808;28;20047;-30
2022/01/28 06:30:38;;;;;;;12.13;2.22;;;;;;;5.57;100.00;103357.88;5071367;28;20136;-32
2022/01/28 06:33:06;;;;;;;17.38;2.35;;;;;;;5.54;100.00;103367.44;5069422;28;20052;-31
2022/01/28 06:35:34;;;;;;;14.20;1.92;;;;;;;5.52;100.00;103369.53;5069996;28;20056;-30
2022/01/28 06:38:02;;;;;;;13.27;1.98;;;;;;;5.48;100.00;103371.00;5069675;28;20405;-31
2022/01/28 06:40:29;;;;;;;13.38;2.28;;;;;;;5.45;100.00;103366.72;5070904;28;20476;-30
2022/01/28 06:42:58;;;;;;;13.07;2.53;;;;;;;5.43;100.00;103362.44;5071042;28;20143;-32
2022/01/28 06:45:26;;;;;;;16.98;2.00;;;;;;;5.42;100.00;103369.91;5071449;28;20134;-31
2022/01/28 06:47:54;;;;;;;18.40;2.13;;;;;;;5.42;100.00;103377.34;5070450;28;20370;-34
2022/01/28 06:50:22;;;;;;;19.17;2.28;;;;;;;5.41;100.00;103370.94;5071573;28;20071;-32
2022/01/28 06:52:53;;;;;;;18.25;2.17;;;;;;;5.40;100.00;103379.47;5071192;28;20091;-35
2022/01/28 06:55:20;;;;;;;19.25;2.63;;;;;;;5.38;100.00;103371.38;5070610;28;20139;-35
2022/01/28 06:57:48;;;;;;;11.90;1.90;;;;;;;5.36;100.00;103375.41;5071046;28;20044;-37
2022/01/28 07:00:18;;;;;;;16.70;2.08;;;;;;;5.35;100.00;103373.69;5071216;28;20408;-33
2022/01/28 07:02:46;;;;;;;20.35;3.13;;;;;;;5.34;100.00;103389.47;5070191;28;20051;-35
2022/01/28 07:05:14;;;;;;;17.70;2.03;;;;;;;5.32;100.00;103382.41;5070947;28;20048;-37
2022/01/28 07:07:47;;;;;;;14.70;1.83;;;;;;;5.30;100.00;103390.06;5061238;28;20501;-34
2022/01/28 07:10:15;;;;;;;16.70;1.98;;;;;;;5.29;100.00;103394.75;5070078;28;20045;-32
2022/01/28 07:12:42;;;;;;;16.35;2.20;;;;;;;5.29;100.00;103397.50;5070750;28;20088;-34
2022/01/28 07:15:10;;;;;;;15.05;1.88;;;;;;;5.28;100.00;103393.03;5070518;28;20049;-31
2022/01/28 07:17:40;;;;;;;12.02;1.90;;;;;;;5.27;100.00;103387.69;5069050;28;20138;-32
2022/01/28 07:20:08;;;;;;;14.57;2.20;;;;;;;5.27;100.00;103393.22;5068458;28;20476;-33
2022/01/28 07:22:36;;;;;;;14.40;1.70;;;;;;;5.27;100.00;103396.84;5068374;28;20054;-30
2022/01/28 07:25:06;;;;;;;10.75;1.55;;;;;;;5.26;100.00;103395.13;5058633;28;20114;-30
2022/01/28 07:27:33;;;;;;;19.50;2.67;;;;;;;5.29;100.00;103399.41;5069563;28;20079;-31
2022/01/28 07:30:01;;;;;;;14.40;2.20;;;;;;;5.30;100.00;103403.91;5068796;28;20049;-32
2022/01/28 07:32:29;;;;;;;16.23;2.08;;;;;;;5.33;100.00;103400.72;5068957;28;20045;-30
2022/01/28 07:34:58;;;;;;;14.40;2.63;;;;;;;5.35;100.00;103413.31;5069822;28;20485;-31
2022/01/28 07:37:25;;;;;;;17.17;2.00;;;;;;;5.38;100.00;103418.47;5069272;28;20044;-32
2022/01/28 07:39:54;;;;;;;12.88;1.90;;;;;;;5.42;100.00;103419.75;5067210;28;20045;-33
2022/01/28 07:42:22;;;;;;;21.75;2.45;;;;;;;5.47;100.00;103422.75;5069486;28;20545;-32
2022/01/28 07:44:50;;;;;;;16.50;1.95;;;;;;;5.51;100.00;103426.00;5065584;28;20052;-35
2022/01/28 07:47:18;;;;;;;19.23;2.28;;;;;;;5.57;100.00;103430.72;5069422;28;20135;-32
2022/01/28 07:49:46;;;;;;;18.48;2.17;;;;;;;5.60;100.00;103424.75;5065799;28;20045;-33
2022/01/28 07:52:15;;;;;;;16.20;1.98;;;;;;;5.64;100.00;103431.59;5068146;28;20045;-32
2022/01/28 07:54:49;;;;;;;13.85;1.80;;;;;;;5.66;100.00;103437.81;5069240;28;20063;-34
2022/01/28 07:57:17;;;;;;;7.88;1.52;;;;;;;5.69;100.00;103444.84;5069116;28;20165;-32
2022/01/28 07:59:44;;;;;;;11.90;1.70;;;;;;;5.71;100.00;103449.13;5068563;28;20182;-30
2022/01/28 08:02:13;;;;;;;16.65;2.08;;;;;;;5.78;100.00;103451.97;5069541;28;20139;-30
2022/01/28 08:04:42;;;;;;;15.02;2.67;;;;;;;5.84;100.00;103453.88;5059763;28;20048;-31
2022/01/28 08:07:10;;;;;;;20.58;2.00;;;;;;;5.92;100.00;103453.78;5068747;28;20047;-30
2022/01/28 08:09:39;;;;;;;12.43;2.08;;;;;;;6.01;100.00;103454.44;5069246;28;20055;-33
2022/01/28 08:12:08;;;;;;;14.95;2.50;;;;;;;6.08;100.00;103449.78;5068245;28;20056;-33
2022/01/28 08:14:35;;;;;;;15.50;2.03;;;;;;;6.18;100.00;103455.81;5069255;28;20041;-31
2022/01/28 08:17:04;;;;;;;14.15;2.45;;;;;;;6.26;100.00;103446.44;5069522;28;20088;-31
2022/01/28 08:19:31;;;;;;;11.45;2.30;;;;;;;6.36;100.00;103449.72;5068020;28;20446;-29
2022/01/28 08:21:59;;;;;;;15.32;2.75;;;;;;;6.45;100.00;103457.63;5057723;28;20040;-31
2022/01/28 08:24:27;;;;;;;16.23;2.38;;;;;;;6.55;100.00;103462.78;5067602;28;20389;-32
2022/01/28 08:26:56;;;;;;;14.95;2.00;;;;;;;6.62;100.00;103462.78;5068507;28;20071;-33
2022/01/28 08:29:24;;;;;;;10.25;1.83;;;;;;;6.66;100.00;103467.72;5069262;28;20473;-31
2022/01/28 08:31:52;;;;;;;15.65;2.47;;;;;;;6.70;100.00;103460.69;5065420;28;20040;-31
2022/01/28 08:34:20;;;;;;;11.88;2.00;;;;;;;6.71;100.00;103467.94;5057292;28;20466;-31
2022/01/28 08:36:48;;;;;;;10.93;1.83;;;;;;;6.74;100.00;103473.09;5068045;28;20066;-30
2022/01/28 08:39:16;;;;;;;13.82;2.08;;;;;;;6.79;100.00;103469.69;5067656;28;20055;-37
2022/01/28 08:41:44;;;;;;;12.57;1.80;;;;;;;6.83;100.00;103465.41;5068086;28;20091;-36
2022/01/28 08:44:17;;;;;;;12.88;1.88;;;;;;;6.87;100.00;103478.66;5065958;28;20185;-32
2022/01/28 08:46:45;;;;;;;14.02;2.13;;;;;;;6.93;100.00;103478.88;5071906;28;20056;-31
2022/01/28 08:49:13;;;;;;;14.60;2.00;;;;;;;6.99;100.00;103484.47;5072310;28;20440;-31
2022/01/28 08:51:41;;;;;;;13.77;1.63;;;;;;;7.08;100.00;103485.94;5072557;28;20131;-31
2022/01/28 08:54:09;;;;;;;9.55;1.48;;;;;;;7.18;100.00;103486.41;5071479;28;20055;-30
2022/01/28 08:56:37;;;;;;;13.35;2.13;;;;;;;7.31;100.00;103481.91;5072532;28;20044;-31
2022/01/28 08:59:26;;;;;;;13.50;1.90;;;;;;;7.50;100.00;103476.34;5072309;28;20051;-34
2022/01/28 09:01:53;;;;;;;14.18;2.05;;;;;;;7.70;100.00;103492.16;5071198;28;20052;-34
2022/01/28 09:04:21;;;;;;;15.13;2.28;;;;;;;7.95;100.00;103496.81;5071938;28;20056;-34
2022/01/28 09:06:50;;;;;;;14.82;1.90;;;;;;;8.31;100.00;103501.00;5072257;28;20053;-33
2022/01/28 09:09:19;;;;;;;14.38;2.33;;;;;;;8.73;100.00;103499.53;5071508;28;20052;-33
2022/01/28 09:11:53;;;;;;;13.10;1.90;;;;;;;9.21;100.00;103511.00;5072122;28;20044;-31
2022/01/28 09:14:22;;;;;;;14.30;2.08;;;;;;;9.70;100.00;103508.47;5071508;28;20068;-30
2022/01/28 09:16:52;;;;;;;9.55;1.98;;;;;;;10.19;100.00;103508.41;5071198;28;20049;-31
2022/01/28 09:19:20;;;;;;;17.10;2.92;;;;;;;10.67;100.00;103511.25;5072002;28;20052;-33
2022/01/28 09:21:48;;;;;;;12.75;2.20;;;;;;;11.14;100.00;103511.47;5073001;28;20409;-32
2022/01/28 09:24:15;;;;;;;9.35;1.52;;;;;;;11.57;100.00;103508.41;5072139;28;20051;-31
2022/01/28 09:26:43;;;;;;;11.95;2.33;;;;;;;12.01;100.00;103506.09;5072679;28;20052;-33
2022/01/28 09:29:11;;;;;;;11.38;2.17;;;;;;;12.45;99.30;103500.94;5071965;28;20054;-31
2022/01/28 09:31:39;;;;;;;16.52;2.45;;;;;;;12.83;96.56;103498.38;5072855;28;20048;-32
2022/01/28 09:34:08;;;;;;;13.30;2.28;;;;;;;13.19;93.70;103491.50;5072459;28;20513;-33
2022/01/28 09:36:36;;;;;;;14.85;2.22;;;;;;;13.40;90.53;103498.31;5072075;28;20084;-32
2022/01/28 09:39:06;;;;;;;12.45;2.17;;;;;;;13.45;88.35;103504.03;5072618;28;20055;-34
2022/01/28 09:41:35;;;;;;;12.13;2.00;;;;;;;13.33;86.36;103514.50;5072645;28;20067;-33
2022/01/28 09:44:03;;;;;;;12.23;1.90;;;;;;;13.06;85.74;103514.22;5071825;28;20051;-35
2022/01/28 09:46:31;;;;;;;10.80;1.95;;;;;;;12.78;86.02;103512.28;5072784;28;20040;-31
2022/01/28 09:48:59;;;;;;;12.90;2.00;;;;;;;12.49;86.21;103519.81;5072391;28;20107;-31
2022/01/28 09:51:28;;;;;;;8.45;1.63;;;;;;;12.31;87.48;103522.75;5071735;28;20124;-31
2022/01/28 09:53:56;;;;;;;8.05;1.73;;;;;;;12.20;87.58;103532.00;5072273;28;20065;-34
2022/01/28 09:56:24;;;;;;;11.52;2.20;;;;;;;12.05;87.63;103524.13;5071949;28;20040;-32
2022/01/28 09:58:52;;;;;;;6.68;1.30;;;;;;;11.86;87.62;103529.00;5071298;28;20046;-33
2022/01/28 10:01:19;;;;;;;6.30;1.25;;;;;;;11.70;88.34;103538.06;5071195;28;20076;-32
2022/01/28 10:03:59;;;;;;;8.90;1.55;;;;;;;11.56;89.04;103537.47;5070849;28;20477;-31
2022/01/28 10:06:32;;;;;;;9.70;1.77;;;;;;;11.47;90.18;103544.47;5071245;28;20052;-32
2022/01/28 10:09:06;;;;;;;7.28;1.33;;;;;;;11.49;90.43;103545.09;5072225;28;20068;-31
2022/01/28 10:11:35;;;;;;;12.32;1.33;;;;;;;11.50;89.76;103554.34;5071492;28;20059;-33
2022/01/28 10:14:08;;;;;;;8.25;1.40;;;;;;;11.46;89.53;103555.91;5071941;28;20421;-31
2022/01/28 10:16:36;;;;;;;9.25;2.20;;;;;;;11.37;89.57;103547.88;5071937;28;20139;-38
2022/01/28 10:19:06;;;;;;;9.75;1.65;;;;;;;11.33;89.99;103554.16;5069485;28;20523;-37
2022/01/28 10:21:37;;;;;;;7.70;1.20;;;;;;;11.29;90.28;103548.19;5071980;28;20400;-33
2022/01/28 10:24:12;;;;;;;13.23;1.67;;;;;;;11.24;90.51;103542.47;5071878;28;20072;-33
2022/01/28 10:26:43;;;;;;;9.43;1.67;;;;;;;11.21;91.06;103547.66;5070920;28;20522;-35
2022/01/28 10:29:13;;;;;;;10.27;2.03;;;;;;;11.22;91.83;103536.25;5071323;28;20090;-38
2022/01/28 10:31:47;;;;;;;8.25;1.70;;;;;;;11.33;92.23;103543.00;5071869;28;20040;-38
2022/01/28 10:34:24;;;;;;;8.32;1.48;;;;;;;11.48;92.16;103545.31;5070865;28;20055;-38
2022/01/28 10:37:09;;;;;;;10.48;1.58;;;;;;;11.77;92.37;103538.00;5071616;28;20053;-38
2022/01/28 10:39:43;;;;;;;11.95;1.50;;;;;;;12.10;91.27;103543.00;5070679;28;20067;-32
2022/01/28 10:42:12;;;;;;;9.77;2.10;;;;;;;12.41;90.11;103540.63;5071468;28;20082;-31
2022/01/28 10:44:53;;;;;;;10.60;1.67;;;;;;;12.71;88.64;103537.66;5071346;28;20127;-35
2022/01/28 10:47:40;;;;;;;10.43;1.88;;;;;;;13.04;86.49;103545.31;5070553;28;20131;-31
2022/01/28 10:50:19;;;;;;;7.95;1.52;;;;;;;13.34;84.71;103541.44;5070966;28;20044;-33
2022/01/28 10:52:58;;;;;;;6.38;1.60;;;;;;;13.52;83.10;103529.97;5071365;28;20127;-33
2022/01/28 10:55:25;;;;;;;7.40;1.30;;;;;;;13.60;82.08;103526.72;5061996;28;20036;-33
2022/01/28 10:57:59;;;;;;;8.10;1.88;;;;;;;13.74;81.17;103516.88;5071061;28;20048;-32
2022/01/28 11:00:30;;;;;;;6.07;1.10;;;;;;;13.88;79.28;103519.34;5070131;28;20052;-32
2022/01/28 11:02:59;;;;;;;4.57;1.30;;;;;;;13.82;78.74;103509.97;5071069;28;20127;-31
2022/01/28 11:05:29;;;;;;;6.38;1.17;;;;;;;13.89;78.46;103509.81;5070911;28;20044;-33
2022/01/28 11:07:59;;;;;;;6.78;1.15;;;;;;;13.99;77.84;103501.53;5069223;28;20094;-33
2022/01/28 11:10:28;;;;;;;7.50;1.10;;;;;;;14.11;76.14;103503.13;5070872;28;20043;-31
2022/01/28 11:12:57;;;;;;;6.95;1.50;;;;;;;14.04;74.84;103499.66;5070798;28;20048;-33
2022/01/28 11:15:25;;;;;;;4.25;1.17;;;;;;;14.06;75.38;103503.06;5070183;28;20059;-32
2022/01/28 11:17:54;;;;;;;8.40;1.20;;;;;;;14.18;74.10;103499.31;5071003;28;20056;-32
2022/01/28 11:20:24;;;;;;;5.72;1.10;;;;;;;14.02;72.98;103489.78;5070827;28;20128;-31
2022/01/28 11:23:08;;;;;;;6.72;1.38;;;;;;;14.00;74.27;103483.56;5069964;28;20508;-31
2022/01/28 11:25:56;;;;;;;8.30;1.30;;;;;;;13.98;72.89;103483.88;5070736;28;20059;-34
2022/01/28 11:28:40;;;;;;;8.90;1.40;;;;;;;13.77;72.34;103476.25;5061743;28;20051;-34
2022/01/28 11:31:08;;;;;;;7.40;1.23;;;;;;;13.41;73.60;103463.56;5070790;28;20132;-32
2022/01/28 11:33:47;;;;;;;6.95;1.33;;;;;;;13.22;74.60;103470.53;5070732;28;20493;-36
2022/01/28 11:36:30;;;;;;;6.97;1.23;;;;;;;13.12;76.04;103462.78;5070025;28;20044;-33
2022/01/28 11:39:07;;;;;;;7.38;1.15;;;;;;;13.13;76.74;103461.66;5070568;28;20052;-33
2022/01/28 11:41:36;;;;;;;6.72;1.20;;;;;;;13.08;75.33;103458.75;5070548;28;20064;-34
2022/01/28 11:44:04;;;;;;;7.22;1.35;;;;;;;12.74;76.06;103455.91;5069531;28;20393;-31
2022/01/28 11:46:38;;;;;;;6.97;1.23;;;;;;;12.49;76.94;103449.78;5070291;28;20047;-35
2022/01/28 11:49:22;;;;;;;7.15;1.30;;;;;;;12.40;77.85;103454.06;5070684;28;20516;-31
2022/01/28 11:51:50;;;;;;;8.63;1.05;;;;;;;12.37;78.79;103444.25;5069818;28;20090;-34
2022/01/28 11:54:35;;;;;;;9.40;1.30;;;;;;;12.29;78.34;103446.56;5070489;28;20094;-31
2022/01/28 11:57:27;;;;;;;7.70;1.27;;;;;;;12.22;77.06;103434.63;5069593;28;20417;-36
2022/01/28 12:00:21;;;;;;;7.80;1.13;;;;;;;11.94;77.98;103427.06;5055518;28;20572;-31
2022/01/28 12:02:50;;;;;;;6.28;1.30;;;;;;;11.67;79.57;103432.25;5063075;28;20048;-32
2022/01/28 12:05:26;;;;;;;10.55;1.48;;;;;;;11.50;80.15;103440.53;5069469;28;20626;-31
2022/01/28 12:07:55;;;;;;;9.88;1.60;;;;;;;11.40;81.69;103438.31;5062029;28;20488;-33
2022/01/28 12:10:25;;;;;;;10.25;1.40;;;;;;;11.26;81.96;103428.47;5070474;28;20037;-32
2022/01/28 12:13:01;;;;;;;8.45;1.60;;;;;;;11.14;82.33;103427.63;5069673;28;20049;-34
2022/01/28 12:15:31;;;;;;;5.32;1.23;;;;;;;10.93;82.69;103422.59;5070197;28;20054;-31
2022/01/28 12:18:07;;;;;;;5.75;1.20;;;;;;;10.87;84.40;103426.34;5069362;28;20048;-32
2022/01/28 12:20:59;;;;;;;6.25;1.00;;;;;;;10.67;84.23;103418.25;5074224;28;20055;-33
2022/01/28 12:23:29;;;;;;;9.33;1.30;;;;;;;10.41;85.36;103419.47;5074064;28;20547;-33
2022/01/28 12:26:00;;;;;;;8.63;1.60;;;;;;;10.20;85.81;103414.38;5073166;28;20472;-33
2022/01/28 12:28:43;;;;;;;9.52;1.48;;;;;;;10.00;86.48;103415.47;5065106;28;20481;-36
2022/01/28 12:31:14;;;;;;;7.78;1.35;;;;;;;9.94;87.65;103413.63;5073938;28;20048;-32
2022/01/28 12:33:44;;;;;;;8.98;1.40;;;;;;;9.97;88.09;103415.94;5072980;28;20040;-32
2022/01/28 12:36:14;;;;;;;5.57;1.02;;;;;;;9.92;87.50;103409.34;5073818;28;20055;-32